createdAt,value
2023-03-17T00:05:39.124Z,1.93
2023-03-17T00:16:03.325Z,1.85
2023-03-17T00:26:25.200Z,1.81
2023-03-17T00:36:51.030Z,1.78
2023-03-17T00:47:13.390Z,1.73
2023-03-17T00:57:34.504Z,1.68
2023-03-17T01:07:59.165Z,1.61
2023-03-17T01:18:23.066Z,1.59
2023-03-17T01:28:44.134Z,1.54
2023-03-17T01:39:05.694Z,1.53
2023-03-17T01:49:35.650Z,1.47
2023-03-17T02:00:00.743Z,1.46
2023-03-17T02:10:25.069Z,1.42
2023-03-17T02:20:46.774Z,1.38
2023-03-17T02:31:10.258Z,1.35
2023-03-17T02:41:31.731Z,1.34
2023-03-17T02:51:54.383Z,1.29
2023-03-17T03:02:15.621Z,1.29
2023-03-17T03:12:37.201Z,1.26
2023-03-17T03:22:58.176Z,1.22
2023-03-17T03:33:19.310Z,1.17
2023-03-17T03:43:41.288Z,1.15
2023-03-17T03:54:02.792Z,1.12
2023-03-17T04:04:23.928Z,1.10
2023-03-17T04:14:45.942Z,1.07
2023-03-17T04:25:07.658Z,1.05
2023-03-17T04:35:28.918Z,1.04
2023-03-17T04:45:50.949Z,1.01
2023-03-17T04:56:12.875Z,0.98
2023-03-17T05:06:34.304Z,0.93
2023-03-17T05:16:55.601Z,0.94
2023-03-17T05:27:17.031Z,0.92
2023-03-17T05:37:38.358Z,0.89
2023-03-17T05:47:59.753Z,0.90
2023-03-17T05:58:21.354Z,0.86
2023-03-17T06:08:42.402Z,0.88
2023-03-17T06:19:03.782Z,0.88
2023-03-17T06:29:24.979Z,0.91
2023-03-17T06:39:46.446Z,0.89
2023-03-17T06:50:12.431Z,0.89
2023-03-17T07:00:33.479Z,1.01
2023-03-17T07:10:56.297Z,1.06
2023-03-17T07:21:17.851Z,1.17
2023-03-17T07:31:39.424Z,1.29
2023-03-17T07:42:00.664Z,1.45
2023-03-17T07:52:21.784Z,1.60
2023-03-17T08:02:44.350Z,1.81
2023-03-17T08:13:05.988Z,2.01
2023-03-17T08:23:27.772Z,2.23
2023-03-17T08:33:51.586Z,2.41
2023-03-17T08:44:15.104Z,2.61
2023-03-17T08:54:36.923Z,2.85
2023-03-17T09:04:59.008Z,3.04
2023-03-17T09:15:20.872Z,3.24
2023-03-17T09:25:42.558Z,3.37
2023-03-17T09:36:04.269Z,3.49
2023-03-17T09:46:44.256Z,3.65
2023-03-17T09:57:16.898Z,3.83
2023-03-17T10:08:30.809Z,3.98
2023-03-17T10:19:05.645Z,4.20
2023-03-17T10:29:26.690Z,4.41
2023-03-17T10:39:50.557Z,4.64
2023-03-17T10:50:29.643Z,4.82
2023-03-17T11:00:57.608Z,4.97
2023-03-17T11:11:26.633Z,5.18
2023-03-17T11:22:00.434Z,5.38
2023-03-17T11:32:39.240Z,5.56
2023-03-17T11:43:22.726Z,5.67
2023-03-17T11:53:55.541Z,5.72
2023-03-17T12:04:16.694Z,5.79
2023-03-17T12:14:48.867Z,5.91
2023-03-17T12:25:19.639Z,6.08
2023-03-17T12:35:40.832Z,6.21
2023-03-17T12:46:39.609Z,6.36
2023-03-17T12:57:15.278Z,6.45
2023-03-17T13:07:49.433Z,6.56
2023-03-17T13:18:16.662Z,6.60
2023-03-17T13:28:37.650Z,6.66
2023-03-17T13:39:34.569Z,6.70
2023-03-17T13:50:02.240Z,6.71
2023-03-17T14:00:26.960Z,6.74
2023-03-17T14:10:56.331Z,6.76
2023-03-17T14:21:22.298Z,6.77
2023-03-17T14:31:52.517Z,6.81
2023-03-17T14:42:14.137Z,6.85
2023-03-17T14:52:37.434Z,6.88
2023-03-17T15:03:02.220Z,6.81
2023-03-17T15:13:25.771Z,6.77
2023-03-17T15:23:48.218Z,6.72
2023-03-17T15:34:13.784Z,6.64
2023-03-17T15:44:34.753Z,6.57
2023-03-17T15:54:58.323Z,6.52
2023-03-17T16:05:25.199Z,6.42
2023-03-17T16:15:54.580Z,6.34
2023-03-17T16:26:17.100Z,6.26
2023-03-17T16:36:40.464Z,6.18
2023-03-17T16:47:01.451Z,6.11
2023-03-17T16:57:22.778Z,6.04
2023-03-17T17:07:44.965Z,5.97
2023-03-17T17:18:15.099Z,5.91
2023-03-17T17:28:36.536Z,5.88
2023-03-17T17:38:58.042Z,5.84
2023-03-17T17:49:19.356Z,5.80
2023-03-17T17:59:40.518Z,5.79
2023-03-17T18:10:01.774Z,5.75
2023-03-17T18:20:24.199Z,5.73
2023-03-17T18:30:45.343Z,5.69
2023-03-17T18:41:07.439Z,5.65
2023-03-17T18:51:28.684Z,5.59
2023-03-17T19:01:49.987Z,5.53
2023-03-17T19:12:11.428Z,5.48
2023-03-17T19:22:34.167Z,5.43
2023-03-17T19:32:55.596Z,5.37
2023-03-17T19:43:32.538Z,5.32
2023-03-17T19:53:58.114Z,5.28
2023-03-17T20:04:21.077Z,5.23
2023-03-17T20:14:44.296Z,5.19
2023-03-17T20:25:06.678Z,5.15
2023-03-17T20:35:28.451Z,5.11
2023-03-17T20:45:51.526Z,5.06
2023-03-17T20:56:19.965Z,5.04
2023-03-17T21:06:42.446Z,5.13
2023-03-17T21:17:04.482Z,5.15
2023-03-17T21:27:25.448Z,5.16
2023-03-17T21:37:46.861Z,5.12
2023-03-17T21:48:08.234Z,5.11
2023-03-17T21:58:29.291Z,5.09
2023-03-17T22:08:50.860Z,5.06
2023-03-17T22:19:12.509Z,5.04
2023-03-17T22:29:34.069Z,5.01
2023-03-17T22:39:55.394Z,4.97
2023-03-17T22:50:16.936Z,4.95
2023-03-17T23:00:38.914Z,4.93
2023-03-17T23:11:01.927Z,4.88
2023-03-17T23:21:28.692Z,4.85
2023-03-17T23:31:49.962Z,4.83
2023-03-17T23:42:11.441Z,4.81
2023-03-17T23:52:32.915Z,4.78
